Terminal Aerodrome Forecast
Issued by NWS

Home | Current Version | Previous Version | Text Only | Print | Product List | Glossary On
Versions: 1 2 3 4 5 6 7 8 9 10 11 12 13 14 15 16 17 18 19 20 21 22 23 24 25 26 27 28 29 30 31 32 33 34 35
666
FTUS45 KRIW 162326
TAFPNA
TAF
KPNA 162326Z 1700/1724 31009KT 4SM -SN BKN018 OVC035
      TEMPO 1700/1702 2SM -SN
     FM170900 34007KT P6SM VCFG SCT003 BKN030
     FM171700 33011KT P6SM SCT090
      AMD LTD TO CLD VIS AND WIND=

USA.gov is the U.S. government's official web portal to all federal, state and local government web resources and services.